createdAt,value
2023-04-18T00:01:57.742Z,7.71
2023-04-18T00:04:25.612Z,7.73
2023-04-18T00:06:52.574Z,7.71
2023-04-18T00:09:19.377Z,7.72
2023-04-18T00:11:46.232Z,7.70
2023-04-18T00:14:13.749Z,7.71
2023-04-18T00:16:40.933Z,7.69
2023-04-18T00:19:08.800Z,7.67
2023-04-18T00:21:37.319Z,7.67
2023-04-18T00:24:04.348Z,7.67
2023-04-18T00:26:31.395Z,7.68
2023-04-18T00:28:58.283Z,7.68
2023-04-18T00:31:25.236Z,7.66
2023-04-18T00:33:52.054Z,7.65
2023-04-18T00:36:18.904Z,7.64
2023-04-18T00:38:45.812Z,7.65
2023-04-18T00:41:12.738Z,7.64
2023-04-18T00:43:39.553Z,7.63
2023-04-18T00:46:06.758Z,7.62
2023-04-18T00:48:33.738Z,7.61
2023-04-18T00:51:00.883Z,7.60
2023-04-18T00:53:28.686Z,7.58
2023-04-18T00:55:55.806Z,7.55
2023-04-18T00:58:23.514Z,7.57
2023-04-18T01:00:50.364Z,7.56
2023-04-18T01:03:18.647Z,7.56
2023-04-18T01:05:46.654Z,7.55
2023-04-18T01:08:14.289Z,7.55
2023-04-18T01:10:41.901Z,7.54
2023-04-18T01:13:16.052Z,7.52
2023-04-18T01:15:45.280Z,7.54
2023-04-18T01:18:13.334Z,7.54
2023-04-18T01:20:43.900Z,7.51
2023-04-18T01:23:10.944Z,7.52
2023-04-18T01:25:39.134Z,7.49
2023-04-18T01:28:07.008Z,7.52
2023-04-18T01:30:34.581Z,7.53
2023-04-18T01:33:03.468Z,7.53
2023-04-18T01:35:31.217Z,7.50
2023-04-18T01:37:58.572Z,7.52
2023-04-18T01:40:26.068Z,7.52
2023-04-18T01:42:52.955Z,7.52
2023-04-18T01:45:20.380Z,7.52
2023-04-18T01:47:47.397Z,7.52
2023-04-18T01:50:14.490Z,7.52
2023-04-18T01:52:41.572Z,7.53
2023-04-18T01:55:08.952Z,7.54
2023-04-18T01:57:36.860Z,7.54
2023-04-18T02:00:08.240Z,7.56
2023-04-18T02:02:35.214Z,7.57
2023-04-18T02:05:02.240Z,7.57
2023-04-18T02:07:30.825Z,7.56
2023-04-18T02:09:57.704Z,7.58
2023-04-18T02:12:24.551Z,7.58
2023-04-18T02:14:53.658Z,7.59
2023-04-18T02:17:23.743Z,7.60
2023-04-18T02:19:53.838Z,7.58
2023-04-18T02:22:20.624Z,7.62
2023-04-18T02:24:47.422Z,7.64
2023-04-18T02:27:14.336Z,7.65
2023-04-18T02:29:41.257Z,7.65
2023-04-18T02:32:08.484Z,7.67
2023-04-18T02:34:37.199Z,7.69
2023-04-18T02:37:04.824Z,7.68
2023-04-18T02:39:31.687Z,7.68
2023-04-18T02:41:59.420Z,7.68
2023-04-18T02:44:26.370Z,7.67
2023-04-18T02:46:53.264Z,7.64
2023-04-18T02:49:20.343Z,7.65
2023-04-18T02:51:47.222Z,7.61
2023-04-18T02:54:14.266Z,7.63
2023-04-18T02:56:42.883Z,7.63
2023-04-18T02:59:09.767Z,7.59
2023-04-18T03:01:36.928Z,7.58
2023-04-18T03:04:04.128Z,7.57
2023-04-18T03:06:31.814Z,7.57
2023-04-18T03:08:58.908Z,7.58
2023-04-18T03:11:25.797Z,7.56
2023-04-18T03:13:53.928Z,7.58
2023-04-18T03:16:21.045Z,7.59
2023-04-18T03:18:47.984Z,7.62
2023-04-18T03:21:15.071Z,7.62
2023-04-18T03:23:41.883Z,7.63
2023-04-18T03:26:09.178Z,7.65
2023-04-18T03:28:36.181Z,7.63
2023-04-18T03:31:03.238Z,7.67
2023-04-18T03:33:30.095Z,7.67
2023-04-18T03:35:57.100Z,7.69
2023-04-18T03:38:23.991Z,7.71
2023-04-18T03:40:50.984Z,7.75
2023-04-18T03:43:20.473Z,7.81
2023-04-18T03:45:47.731Z,7.85
2023-04-18T03:48:14.773Z,7.86
2023-04-18T03:50:41.802Z,7.98
2023-04-18T03:53:08.703Z,8.05
2023-04-18T03:55:35.849Z,8.10
2023-04-18T03:58:02.674Z,8.18
2023-04-18T04:00:29.483Z,8.25
2023-04-18T04:02:56.732Z,8.32
2023-04-18T04:05:23.782Z,8.41
2023-04-18T04:07:50.655Z,8.50
2023-04-18T04:10:17.433Z,8.61
2023-04-18T04:12:44.235Z,8.71
2023-04-18T04:15:11.695Z,8.83
2023-04-18T04:17:38.648Z,8.91
2023-04-18T04:20:06.380Z,8.99
2023-04-18T04:22:34.491Z,9.08
2023-04-18T04:25:01.401Z,9.16
2023-04-18T04:27:30.129Z,9.15
2023-04-18T04:29:56.881Z,9.22
2023-04-18T04:32:25.314Z,9.30
2023-04-18T04:34:52.363Z,9.38
2023-04-18T04:37:19.389Z,9.43
2023-04-18T04:39:46.336Z,9.48
2023-04-18T04:42:13.519Z,9.54
2023-04-18T04:44:41.923Z,9.58
2023-04-18T04:47:08.726Z,9.62
2023-04-18T04:49:35.876Z,9.69
2023-04-18T04:52:05.680Z,9.74
2023-04-18T04:54:32.514Z,9.80
2023-04-18T04:56:59.365Z,9.86
2023-04-18T04:59:26.334Z,9.89
2023-04-18T05:01:53.312Z,9.94
2023-04-18T05:04:20.604Z,9.97
2023-04-18T05:06:47.741Z,10.00
2023-04-18T05:09:14.919Z,10.03
2023-04-18T05:11:41.692Z,10.06
2023-04-18T05:14:08.741Z,10.10
2023-04-18T05:16:35.943Z,10.16
2023-04-18T05:19:02.920Z,10.21
2023-04-18T05:21:29.902Z,10.27
2023-04-18T05:23:56.691Z,10.33
2023-04-18T05:26:24.429Z,10.37
2023-04-18T05:28:51.522Z,10.41
2023-04-18T05:31:18.882Z,10.40
2023-04-18T05:33:45.748Z,10.42
2023-04-18T05:36:12.620Z,10.46
2023-04-18T05:38:39.504Z,10.45
2023-04-18T05:41:06.346Z,10.43
2023-04-18T05:43:33.322Z,10.45
2023-04-18T05:46:00.412Z,10.45
2023-04-18T05:48:27.344Z,10.45
2023-04-18T05:50:54.200Z,10.44
2023-04-18T05:53:21.059Z,10.44
2023-04-18T05:55:48.978Z,10.43
2023-04-18T05:58:16.263Z,10.40
2023-04-18T06:00:43.566Z,10.43
2023-04-18T06:03:11.372Z,10.46
2023-04-18T06:05:38.793Z,10.46
2023-04-18T06:08:06.341Z,10.48
2023-04-18T06:10:33.878Z,10.51
2023-04-18T06:13:00.623Z,10.51
2023-04-18T06:15:27.390Z,10.53
2023-04-18T06:17:54.515Z,10.53
2023-04-18T06:20:23.501Z,10.55
2023-04-18T06:22:50.359Z,10.51
2023-04-18T06:25:17.272Z,10.50
2023-04-18T06:27:44.157Z,10.46
2023-04-18T06:30:11.510Z,10.43
2023-04-18T06:32:38.484Z,10.46
2023-04-18T06:35:05.715Z,10.56
2023-04-18T06:37:32.802Z,10.65
2023-04-18T06:39:59.812Z,10.69
2023-04-18T06:42:26.832Z,10.74
2023-04-18T06:44:53.664Z,10.85
2023-04-18T06:47:20.558Z,11.06
2023-04-18T06:49:47.378Z,11.26
2023-04-18T06:52:14.306Z,11.43
2023-04-18T06:54:41.122Z,11.64
2023-04-18T06:57:07.966Z,11.85
2023-04-18T06:59:35.680Z,12.09
2023-04-18T07:02:02.637Z,12.23
2023-04-18T07:04:29.641Z,12.29
2023-04-18T07:06:56.551Z,12.28
2023-04-18T07:09:23.357Z,12.20
2023-04-18T07:11:51.236Z,12.21
2023-04-18T07:14:19.981Z,12.21
2023-04-18T07:16:47.263Z,12.30
2023-04-18T07:19:14.246Z,12.36
2023-04-18T07:21:43.159Z,12.41
2023-04-18T07:24:10.207Z,12.31
2023-04-18T07:26:37.670Z,12.36
2023-04-18T07:29:05.161Z,12.39
2023-04-18T07:31:32.063Z,12.40
2023-04-18T07:33:58.965Z,12.40
2023-04-18T07:36:26.547Z,12.45
2023-04-18T07:38:53.347Z,12.46
2023-04-18T07:41:20.367Z,12.50
2023-04-18T07:43:47.225Z,12.54
2023-04-18T07:46:14.326Z,12.59
2023-04-18T07:48:47.240Z,12.82
2023-04-18T07:51:13.992Z,13.08
2023-04-18T07:53:41.621Z,13.23
2023-04-18T07:56:08.506Z,13.26
2023-04-18T07:58:35.647Z,13.25
2023-04-18T08:01:02.930Z,13.24
2023-04-18T08:03:30.237Z,13.19
2023-04-18T08:05:57.376Z,13.14
2023-04-18T08:08:24.238Z,13.10
2023-04-18T08:10:51.755Z,13.09
2023-04-18T08:13:18.893Z,13.02
2023-04-18T08:15:46.741Z,12.98
2023-04-18T08:18:13.762Z,12.91
2023-04-18T08:20:41.178Z,12.89
2023-04-18T08:23:11.272Z,12.85
2023-04-18T08:25:39.826Z,12.81
2023-04-18T08:28:06.858Z,12.83
2023-04-18T08:30:34.004Z,12.87
2023-04-18T08:33:01.616Z,12.93
2023-04-18T08:35:28.892Z,12.98
2023-04-18T08:37:55.897Z,13.03
2023-04-18T08:40:22.913Z,13.04
2023-04-18T08:42:53.223Z,13.04
2023-04-18T08:45:20.244Z,13.02
2023-04-18T08:47:47.584Z,12.99
2023-04-18T08:50:16.649Z,12.93
2023-04-18T08:52:49.740Z,12.86
2023-04-18T08:55:17.025Z,12.75
2023-04-18T08:57:45.025Z,12.63
2023-04-18T09:00:12.460Z,12.56
2023-04-18T09:02:45.042Z,12.49
2023-04-18T09:05:19.885Z,12.39
2023-04-18T09:07:51.579Z,12.29
2023-04-18T09:10:46.747Z,12.14
2023-04-18T09:13:13.684Z,12.08
2023-04-18T09:15:40.899Z,12.03
2023-04-18T09:18:10.589Z,11.97
2023-04-18T09:20:42.524Z,11.93
2023-04-18T09:23:21.784Z,11.91
2023-04-18T09:25:50.994Z,11.91
2023-04-18T09:28:29.117Z,11.88
2023-04-18T09:30:58.025Z,11.86
2023-04-18T09:33:34.885Z,11.87
2023-04-18T09:36:22.977Z,11.84
2023-04-18T09:38:55.325Z,11.85
2023-04-18T09:41:23.665Z,11.85
2023-04-18T09:43:50.738Z,11.86
2023-04-18T09:46:22.737Z,11.88
2023-04-18T09:48:49.712Z,11.88
2023-04-18T09:51:17.126Z,11.89
2023-04-18T09:53:45.207Z,11.92
2023-04-18T09:56:19.170Z,11.95
2023-04-18T09:58:50.810Z,11.98
2023-04-18T10:01:17.818Z,11.99
2023-04-18T10:03:50.499Z,11.98
2023-04-18T10:06:18.032Z,11.96
2023-04-18T10:08:49.155Z,11.97
2023-04-18T10:11:17.581Z,11.98
2023-04-18T10:13:48.939Z,12.02
2023-04-18T10:16:17.198Z,12.06
2023-04-18T10:18:44.290Z,12.07
2023-04-18T10:21:11.941Z,12.09
2023-04-18T10:23:40.044Z,12.12
2023-04-18T10:26:08.580Z,12.15
2023-04-18T10:28:58.661Z,12.19
2023-04-18T10:31:29.381Z,12.25
2023-04-18T10:34:17.959Z,12.29
2023-04-18T10:37:04.955Z,12.33
2023-04-18T10:39:48.118Z,12.41
2023-04-18T10:42:15.111Z,12.48
2023-04-18T10:44:41.905Z,12.50
2023-04-18T10:47:08.964Z,12.48
2023-04-18T10:49:39.040Z,12.52
2023-04-18T10:52:06.892Z,12.55
2023-04-18T10:54:52.256Z,12.58
2023-04-18T10:57:19.076Z,12.60
2023-04-18T10:59:52.062Z,12.62
2023-04-18T11:02:28.918Z,12.64
2023-04-18T11:05:01.892Z,12.65
2023-04-18T11:07:40.068Z,12.66
2023-04-18T11:10:09.209Z,12.67
2023-04-18T11:12:38.120Z,12.71
2023-04-18T11:15:12.512Z,12.60
2023-04-18T11:17:40.352Z,12.65
2023-04-18T11:20:15.119Z,12.67
2023-04-18T11:22:48.215Z,12.72
2023-04-18T11:25:22.292Z,12.73
2023-04-18T11:27:55.708Z,12.73
2023-04-18T11:30:22.827Z,12.71
2023-04-18T11:32:49.792Z,12.71
2023-04-18T11:35:16.662Z,12.71
2023-04-18T11:37:46.014Z,12.75
2023-04-18T11:40:14.163Z,12.77
2023-04-18T11:42:41.630Z,12.83
2023-04-18T11:45:14.934Z,13.02
2023-04-18T11:47:43.371Z,13.27
2023-04-18T11:50:12.426Z,13.51
2023-04-18T11:52:41.657Z,13.72
2023-04-18T11:55:14.600Z,13.97
2023-04-18T11:57:42.046Z,14.26
2023-04-18T12:00:12.542Z,14.54
2023-04-18T12:02:39.957Z,14.72
2023-04-18T12:05:07.404Z,14.79
2023-04-18T12:07:45.341Z,14.94
2023-04-18T12:10:29.933Z,15.16
2023-04-18T12:13:00.413Z,15.42
2023-04-18T12:15:29.121Z,15.50
2023-04-18T12:18:00.248Z,15.21
2023-04-18T12:20:37.658Z,15.05
2023-04-18T12:23:05.515Z,15.01
2023-04-18T12:25:33.604Z,15.01
2023-04-18T12:28:03.663Z,15.02
2023-04-18T12:30:34.120Z,15.03
2023-04-18T12:33:04.338Z,15.09
2023-04-18T12:35:32.432Z,15.28
2023-04-18T12:38:01.184Z,15.38
2023-04-18T12:40:28.935Z,15.28
2023-04-18T12:42:56.355Z,15.21
2023-04-18T12:45:24.038Z,15.07
2023-04-18T12:47:52.547Z,14.99
2023-04-18T12:50:22.214Z,14.94
2023-04-18T12:52:51.835Z,15.09
2023-04-18T12:55:18.974Z,15.13
2023-04-18T12:57:47.208Z,15.35
2023-04-18T13:00:14.899Z,15.33
2023-04-18T13:02:44.218Z,15.26
2023-04-18T13:05:13.398Z,15.19
2023-04-18T13:07:42.706Z,15.08
2023-04-18T13:10:12.122Z,14.96
2023-04-18T13:12:42.462Z,14.89
2023-04-18T13:15:10.143Z,14.88
2023-04-18T13:17:38.445Z,14.78
2023-04-18T13:20:10.782Z,14.72
2023-04-18T13:22:38.393Z,14.64
2023-04-18T13:25:05.904Z,14.56
2023-04-18T13:27:32.793Z,14.48
2023-04-18T13:29:59.812Z,14.45
2023-04-18T13:32:27.176Z,14.42
2023-04-18T13:34:56.167Z,14.38
2023-04-18T13:37:23.058Z,14.23
2023-04-18T13:39:49.904Z,14.26
2023-04-18T13:42:18.221Z,14.27
2023-04-18T13:44:46.300Z,14.28
2023-04-18T13:47:13.328Z,14.34
2023-04-18T13:49:40.956Z,14.41
2023-04-18T13:52:08.039Z,14.44
2023-04-18T13:54:35.194Z,14.42
2023-04-18T13:57:03.337Z,14.45
2023-04-18T13:59:33.609Z,14.45
2023-04-18T14:02:00.578Z,14.54
2023-04-18T14:04:28.225Z,14.60
2023-04-18T14:06:55.704Z,14.60
2023-04-18T14:09:22.591Z,14.56
2023-04-18T14:11:51.339Z,14.83
2023-04-18T14:14:18.186Z,15.05
2023-04-18T14:16:45.279Z,15.39
2023-04-18T14:19:12.546Z,15.74
2023-04-18T14:21:39.601Z,15.83
2023-04-18T14:24:06.897Z,15.63
2023-04-18T14:26:33.695Z,15.37
2023-04-18T14:29:01.106Z,15.18
2023-04-18T14:31:28.318Z,15.00
2023-04-18T14:33:55.300Z,14.86
2023-04-18T14:36:22.168Z,14.74
2023-04-18T14:38:50.202Z,14.64
2023-04-18T14:41:17.148Z,14.59
2023-04-18T14:43:44.151Z,14.54
2023-04-18T14:46:12.979Z,14.50
2023-04-18T14:48:40.146Z,14.45
2023-04-18T14:51:07.195Z,14.44
2023-04-18T14:53:34.152Z,14.41
2023-04-18T14:56:01.221Z,14.39
2023-04-18T14:58:28.153Z,14.37
2023-04-18T15:00:55.270Z,14.32
2023-04-18T15:03:22.683Z,14.26
2023-04-18T15:05:49.684Z,14.23
2023-04-18T15:08:16.583Z,14.18
2023-04-18T15:10:44.568Z,14.15
2023-04-18T15:13:11.712Z,14.12
2023-04-18T15:15:39.871Z,14.08
2023-04-18T15:18:11.050Z,14.01
2023-04-18T15:20:39.556Z,13.92
2023-04-18T15:23:06.602Z,13.87
2023-04-18T15:25:35.267Z,13.80
2023-04-18T15:28:02.081Z,13.76
2023-04-18T15:30:29.043Z,13.70
2023-04-18T15:32:55.942Z,13.62
2023-04-18T15:35:23.168Z,13.55
2023-04-18T15:37:51.408Z,13.49
2023-04-18T15:40:18.795Z,13.40
2023-04-18T15:42:49.316Z,13.37
2023-04-18T15:45:16.196Z,13.29
2023-04-18T15:47:43.232Z,13.20
2023-04-18T15:50:10.399Z,13.11
2023-04-18T15:52:37.349Z,13.06
2023-04-18T15:55:05.250Z,12.96
2023-04-18T15:57:32.317Z,12.86
2023-04-18T15:59:59.786Z,12.80
2023-04-18T16:02:27.069Z,12.76
2023-04-18T16:04:53.938Z,12.70
2023-04-18T16:07:20.700Z,12.65
2023-04-18T16:09:47.547Z,12.60
2023-04-18T16:12:14.536Z,12.53
2023-04-18T16:14:41.385Z,12.47
2023-04-18T16:17:08.273Z,12.41
2023-04-18T16:19:38.282Z,12.34
2023-04-18T16:22:07.165Z,12.28
2023-04-18T16:24:34.100Z,12.23
2023-04-18T16:27:01.192Z,12.15
2023-04-18T16:29:28.377Z,12.08
2023-04-18T16:31:55.314Z,12.01
2023-04-18T16:34:22.325Z,11.95
2023-04-18T16:36:51.057Z,11.87
2023-04-18T16:39:20.931Z,11.79
2023-04-18T16:41:47.840Z,11.68
2023-04-18T16:44:14.845Z,11.60
2023-04-18T16:46:42.504Z,11.56
2023-04-18T16:49:09.394Z,11.52
2023-04-18T16:51:37.504Z,11.49
2023-04-18T16:54:05.858Z,11.44
2023-04-18T16:56:32.800Z,11.39
2023-04-18T16:58:59.786Z,11.34
2023-04-18T17:01:26.622Z,11.26
2023-04-18T17:03:54.097Z,11.23
2023-04-18T17:06:22.846Z,11.17
2023-04-18T17:08:50.188Z,11.12
2023-04-18T17:11:17.146Z,11.08
2023-04-18T17:13:44.030Z,11.02
2023-04-18T17:16:11.150Z,10.97
2023-04-18T17:18:38.069Z,10.93
2023-04-18T17:21:05.063Z,10.87
2023-04-18T17:23:32.906Z,10.81
2023-04-18T17:26:00.002Z,10.76
2023-04-18T17:28:27.101Z,10.72
2023-04-18T17:30:53.965Z,10.68
2023-04-18T17:33:21.222Z,10.64
2023-04-18T17:35:48.377Z,10.60
2023-04-18T17:38:15.167Z,10.54
2023-04-18T17:40:41.962Z,10.50
2023-04-18T17:43:08.872Z,10.47
2023-04-18T17:45:35.827Z,10.43
2023-04-18T17:48:03.235Z,10.40
2023-04-18T17:50:30.406Z,10.38
2023-04-18T17:52:57.618Z,10.34
2023-04-18T17:55:26.987Z,10.29
2023-04-18T17:57:53.825Z,10.26
2023-04-18T18:00:21.309Z,10.21
2023-04-18T18:02:48.242Z,10.15
2023-04-18T18:05:16.540Z,10.14
2023-04-18T18:07:47.564Z,10.11
2023-04-18T18:10:20.625Z,10.09
2023-04-18T18:12:47.572Z,10.04
2023-04-18T18:15:14.393Z,10.01
2023-04-18T18:17:41.398Z,9.93
2023-04-18T18:20:12.141Z,9.90
2023-04-18T18:22:39.026Z,9.85
2023-04-18T18:25:06.583Z,9.83
2023-04-18T18:27:34.838Z,9.82
2023-04-18T18:30:02.973Z,9.79
2023-04-18T18:32:32.678Z,9.76
2023-04-18T18:34:59.996Z,9.73
2023-04-18T18:37:27.359Z,9.71
2023-04-18T18:39:55.438Z,9.66
2023-04-18T18:42:22.782Z,9.62
2023-04-18T18:44:49.628Z,9.58
2023-04-18T18:47:18.175Z,9.55
2023-04-18T18:49:45.079Z,9.49
2023-04-18T18:52:11.969Z,9.47
2023-04-18T18:54:38.850Z,9.43
2023-04-18T18:57:05.755Z,9.40
2023-04-18T18:59:32.611Z,9.36
2023-04-18T19:01:59.814Z,9.32
2023-04-18T19:04:27.018Z,9.29
2023-04-18T19:06:53.943Z,9.25
2023-04-18T19:09:20.892Z,9.20
2023-04-18T19:11:47.762Z,9.16
2023-04-18T19:14:14.635Z,9.13
2023-04-18T19:16:41.587Z,9.11
2023-04-18T19:19:08.625Z,9.09
2023-04-18T19:21:35.514Z,9.08
2023-04-18T19:24:02.360Z,9.09
2023-04-18T19:26:29.263Z,9.11
2023-04-18T19:28:56.150Z,9.12
2023-04-18T19:31:23.357Z,9.12
2023-04-18T19:33:50.400Z,9.09
2023-04-18T19:36:17.286Z,9.11
2023-04-18T19:38:44.158Z,9.08
2023-04-18T19:41:10.990Z,9.08
2023-04-18T19:43:38.542Z,9.06
2023-04-18T19:46:05.819Z,9.05
2023-04-18T19:48:32.697Z,9.05
2023-04-18T19:50:59.613Z,9.06
2023-04-18T19:53:26.570Z,9.06
2023-04-18T19:55:55.052Z,9.06
2023-04-18T19:58:38.847Z,9.06
2023-04-18T20:01:06.483Z,9.01
2023-04-18T20:03:34.340Z,9.01
2023-04-18T20:06:01.516Z,8.98
2023-04-18T20:08:29.633Z,8.98
2023-04-18T20:10:56.628Z,8.96
2023-04-18T20:13:23.849Z,8.97
2023-04-18T20:15:50.798Z,8.95
2023-04-18T20:18:18.094Z,8.94
2023-04-18T20:20:45.042Z,8.93
2023-04-18T20:23:11.939Z,8.92
2023-04-18T20:25:38.885Z,8.91
2023-04-18T20:28:06.425Z,8.89
2023-04-18T20:30:34.979Z,8.87
2023-04-18T20:33:02.264Z,8.77
2023-04-18T20:35:29.836Z,8.75
2023-04-18T20:37:57.841Z,8.76
2023-04-18T20:40:25.588Z,8.75
2023-04-18T20:42:54.620Z,8.77
2023-04-18T20:45:24.126Z,8.76
2023-04-18T20:47:51.245Z,8.74
2023-04-18T20:50:18.392Z,8.70
2023-04-18T20:52:45.334Z,8.69
2023-04-18T20:55:12.368Z,8.64
2023-04-18T20:57:39.563Z,8.62
2023-04-18T21:00:08.011Z,8.60
2023-04-18T21:02:35.679Z,8.46
2023-04-18T21:05:02.898Z,8.42
2023-04-18T21:07:32.281Z,8.41
2023-04-18T21:09:59.233Z,8.38
2023-04-18T21:12:26.820Z,8.39
2023-04-18T21:14:53.724Z,8.38
2023-04-18T21:17:20.766Z,8.37
2023-04-18T21:19:49.468Z,8.36
2023-04-18T21:22:17.170Z,8.34
2023-04-18T21:24:44.146Z,8.35
2023-04-18T21:27:11.430Z,8.34
2023-04-18T21:29:38.636Z,8.34
2023-04-18T21:32:05.613Z,8.32
2023-04-18T21:34:33.775Z,8.30
2023-04-18T21:37:00.927Z,8.28
2023-04-18T21:39:27.932Z,8.26
2023-04-18T21:41:54.865Z,8.24
2023-04-18T21:44:21.703Z,8.23
2023-04-18T21:46:48.711Z,8.20
2023-04-18T21:49:15.736Z,8.20
2023-04-18T21:51:42.719Z,8.20
2023-04-18T21:54:09.492Z,8.21
2023-04-18T21:56:36.378Z,8.21
2023-04-18T21:59:04.002Z,8.20
2023-04-18T22:01:31.104Z,8.19
2023-04-18T22:03:58.024Z,8.20
2023-04-18T22:06:25.995Z,8.21
2023-04-18T22:08:53.854Z,8.20
2023-04-18T22:11:23.751Z,8.23
2023-04-18T22:13:54.208Z,8.25
2023-04-18T22:16:24.806Z,8.27
2023-04-18T22:18:51.934Z,8.29
2023-04-18T22:21:18.886Z,8.30
2023-04-18T22:23:46.064Z,8.31
2023-04-18T22:26:12.880Z,8.34
2023-04-18T22:28:39.695Z,8.35
2023-04-18T22:31:06.517Z,8.39
2023-04-18T22:33:33.377Z,8.42
2023-04-18T22:36:00.896Z,8.49
2023-04-18T22:38:27.725Z,8.52
2023-04-18T22:40:54.569Z,8.55
2023-04-18T22:43:23.804Z,8.60
2023-04-18T22:45:51.735Z,8.64
2023-04-18T22:48:18.909Z,8.64
2023-04-18T22:50:46.406Z,8.68
2023-04-18T22:53:14.459Z,8.67
2023-04-18T22:55:43.033Z,8.70
2023-04-18T22:58:11.169Z,8.69
2023-04-18T23:00:38.416Z,8.68
2023-04-18T23:03:05.716Z,8.66
2023-04-18T23:05:33.456Z,8.66
2023-04-18T23:08:00.685Z,8.63
2023-04-18T23:10:28.461Z,8.64
2023-04-18T23:12:55.450Z,8.63
2023-04-18T23:15:23.065Z,8.60
2023-04-18T23:17:53.054Z,8.61
2023-04-18T23:20:21.171Z,8.60
2023-04-18T23:22:50.194Z,8.61
2023-04-18T23:25:17.988Z,8.62
2023-04-18T23:27:44.846Z,8.59
2023-04-18T23:30:12.138Z,8.59
2023-04-18T23:32:39.131Z,8.59
2023-04-18T23:35:06.695Z,8.59
2023-04-18T23:37:33.704Z,8.57
2023-04-18T23:40:00.752Z,8.57
2023-04-18T23:42:27.645Z,8.58
2023-04-18T23:44:54.781Z,8.58
2023-04-18T23:47:22.064Z,8.56
2023-04-18T23:49:48.954Z,8.54
2023-04-18T23:52:15.820Z,8.51
2023-04-18T23:54:42.600Z,8.48
2023-04-18T23:57:09.404Z,8.48
2023-04-18T23:59:36.640Z,8.48
